createdAt,value
2022-10-02T00:00:00.375Z,0.82
2022-10-02T00:01:13.280Z,2.33
2022-10-02T00:02:20.565Z,1.05
2022-10-02T00:03:26.860Z,1.10
2022-10-02T00:04:45.778Z,1.40
2022-10-02T00:05:54.942Z,1.10
2022-10-02T00:07:03.247Z,1.73
2022-10-02T00:08:33.712Z,0.60
2022-10-02T00:09:46.811Z,1.02
2022-10-02T00:11:07.519Z,0.70
2022-10-02T00:12:14.336Z,1.08
2022-10-02T00:13:25.020Z,2.15
2022-10-02T00:14:33.623Z,1.02
2022-10-02T00:15:37.439Z,1.10
2022-10-02T00:16:47.478Z,0.95
2022-10-02T00:17:52.591Z,1.20
2022-10-02T00:18:56.220Z,1.05
2022-10-02T00:19:58.979Z,1.05
2022-10-02T00:21:39.684Z,0.88
2022-10-02T00:22:52.572Z,0.90
2022-10-02T00:23:59.568Z,1.15
2022-10-02T00:25:15.729Z,1.00
2022-10-02T00:26:37.421Z,0.70
2022-10-02T00:28:17.237Z,1.00
2022-10-02T00:29:37.194Z,1.00
2022-10-02T00:31:06.599Z,1.00
2022-10-02T00:32:30.385Z,0.52
2022-10-02T00:33:58.958Z,1.08
2022-10-02T00:35:44.991Z,1.00
2022-10-02T00:36:59.164Z,1.33
2022-10-02T00:38:30.281Z,0.82
2022-10-02T00:39:55.358Z,0.82
2022-10-02T00:41:30.849Z,1.23
2022-10-02T00:43:05.424Z,1.00
2022-10-02T00:44:25.974Z,0.85
2022-10-02T00:45:46.460Z,0.90
2022-10-02T00:47:03.472Z,1.02
2022-10-02T00:48:30.327Z,0.95
2022-10-02T00:49:32.390Z,1.77
2022-10-02T00:51:18.266Z,1.00
2022-10-02T00:52:27.348Z,1.52
2022-10-02T00:53:41.603Z,0.70
2022-10-02T00:54:46.696Z,1.38
2022-10-02T00:56:06.604Z,0.88
2022-10-02T00:57:37.442Z,1.10
2022-10-02T00:58:50.685Z,1.30
2022-10-02T01:00:05.853Z,1.00
2022-10-02T01:01:27.854Z,1.08
2022-10-02T01:02:52.132Z,1.73
2022-10-02T01:03:56.534Z,1.58
2022-10-02T01:05:04.670Z,1.75
2022-10-02T01:06:09.496Z,1.30
2022-10-02T01:07:14.323Z,1.60
2022-10-02T01:08:17.351Z,1.67
2022-10-02T01:09:19.654Z,1.95
2022-10-02T01:10:25.385Z,2.13
2022-10-02T01:11:27.951Z,2.28
2022-10-02T01:12:30.040Z,3.00
2022-10-02T01:13:32.821Z,1.30
2022-10-02T01:14:36.688Z,1.70
2022-10-02T01:15:51.427Z,2.55
2022-10-02T01:16:53.584Z,1.50
2022-10-02T01:17:56.502Z,1.92
2022-10-02T01:18:58.857Z,1.92
2022-10-02T01:20:05.751Z,2.55
2022-10-02T01:21:16.950Z,1.60
2022-10-02T01:22:42.966Z,1.30
2022-10-02T01:23:55.057Z,2.33
2022-10-02T01:24:59.580Z,1.90
2022-10-02T01:26:02.353Z,1.92
2022-10-02T01:27:04.501Z,1.42
2022-10-02T01:28:06.947Z,1.60
2022-10-02T01:29:09.231Z,1.58
2022-10-02T01:30:14.718Z,2.75
2022-10-02T01:31:17.269Z,2.10
2022-10-02T01:32:20.075Z,2.10
2022-10-02T01:33:23.059Z,1.70
2022-10-02T01:34:26.776Z,2.00
2022-10-02T01:35:34.445Z,1.58
2022-10-02T01:36:37.267Z,1.45
2022-10-02T01:37:42.959Z,1.15
2022-10-02T01:38:48.507Z,1.60
2022-10-02T01:39:50.733Z,1.52
2022-10-02T01:40:53.148Z,1.55
2022-10-02T01:41:55.639Z,1.35
2022-10-02T01:43:03.317Z,1.38
2022-10-02T01:44:05.519Z,1.70
2022-10-02T01:45:09.294Z,1.95
2022-10-02T01:46:29.325Z,1.58
2022-10-02T01:47:56.365Z,1.85
2022-10-02T01:49:35.791Z,1.88
2022-10-02T01:50:59.757Z,1.15
2022-10-02T01:52:20.109Z,1.33
2022-10-02T01:53:59.773Z,1.65
2022-10-02T01:55:01.857Z,1.50
2022-10-02T01:56:23.113Z,1.05
2022-10-02T01:58:19.308Z,1.10
2022-10-02T01:59:43.544Z,1.05
2022-10-02T02:01:27.981Z,1.30
2022-10-02T02:02:43.391Z,1.17
2022-10-02T02:03:58.964Z,1.58
2022-10-02T02:05:14.500Z,1.55
2022-10-02T02:06:30.901Z,1.00
2022-10-02T02:07:41.153Z,1.02
2022-10-02T02:09:02.167Z,1.13
2022-10-02T02:10:13.546Z,1.15
2022-10-02T02:11:21.309Z,0.77
2022-10-02T02:12:39.404Z,1.08
2022-10-02T02:14:06.225Z,0.88
2022-10-02T02:15:17.338Z,0.80
2022-10-02T02:16:28.055Z,0.90
2022-10-02T02:17:52.139Z,1.33
2022-10-02T02:19:04.316Z,0.98
2022-10-02T02:20:12.820Z,0.93
2022-10-02T02:21:27.575Z,0.85
2022-10-02T02:22:34.368Z,1.17
2022-10-02T02:23:39.091Z,0.82
2022-10-02T02:24:49.682Z,0.90
2022-10-02T02:25:59.057Z,1.27
2022-10-02T02:27:02.738Z,1.42
2022-10-02T02:28:09.521Z,1.52
2022-10-02T02:29:16.886Z,1.67
2022-10-02T02:30:20.624Z,1.38
2022-10-02T02:31:28.679Z,1.20
2022-10-02T02:32:36.247Z,1.85
2022-10-02T02:33:59.399Z,2.05
2022-10-02T02:35:29.210Z,2.85
2022-10-02T02:36:44.480Z,1.77
2022-10-02T02:37:49.996Z,1.90
2022-10-02T02:38:58.835Z,3.83
2022-10-02T02:40:09.297Z,2.45
2022-10-02T02:41:19.984Z,2.28
2022-10-02T02:42:26.284Z,1.95
2022-10-02T02:43:33.254Z,3.17
2022-10-02T02:44:41.901Z,4.13
2022-10-02T02:45:50.332Z,3.17
2022-10-02T02:47:06.357Z,2.28
2022-10-02T02:48:44.655Z,2.13
2022-10-02T02:50:08.224Z,2.33
2022-10-02T02:51:14.209Z,2.58
2022-10-02T02:52:24.690Z,2.72
2022-10-02T02:53:34.734Z,3.38
2022-10-02T02:54:51.065Z,2.85
2022-10-02T02:56:00.449Z,3.45
2022-10-02T02:57:06.156Z,2.60
2022-10-02T02:58:18.566Z,4.38
2022-10-02T02:59:22.843Z,2.97
2022-10-02T03:00:25.942Z,2.65
2022-10-02T03:01:28.145Z,3.20
2022-10-02T03:02:30.474Z,3.50
2022-10-02T03:03:33.016Z,3.47
2022-10-02T03:04:35.131Z,3.17
2022-10-02T03:05:42.237Z,3.83
2022-10-02T03:06:47.234Z,3.30
2022-10-02T03:08:03.838Z,3.72
2022-10-02T03:09:10.683Z,2.47
2022-10-02T03:10:38.219Z,2.25
2022-10-02T03:12:25.580Z,2.63
2022-10-02T03:13:33.759Z,2.20
2022-10-02T03:14:38.753Z,3.10
2022-10-02T03:16:06.074Z,2.97
2022-10-02T03:17:53.274Z,2.40
2022-10-02T03:19:07.445Z,2.30
2022-10-02T03:20:16.945Z,2.80
2022-10-02T03:21:29.507Z,2.75
2022-10-02T03:22:43.958Z,2.90
2022-10-02T03:24:03.513Z,2.85
2022-10-02T03:25:14.028Z,3.25
2022-10-02T03:26:38.077Z,3.63
2022-10-02T03:27:47.145Z,3.20
2022-10-02T03:28:57.268Z,2.45
2022-10-02T03:30:07.101Z,2.63
2022-10-02T03:31:11.865Z,2.45
2022-10-02T03:32:17.320Z,4.15
2022-10-02T03:33:20.859Z,2.97
2022-10-02T03:34:23.779Z,2.80
2022-10-02T03:35:27.117Z,4.22
2022-10-02T03:36:29.994Z,2.70
2022-10-02T03:37:32.373Z,3.55
2022-10-02T03:38:34.648Z,2.58
2022-10-02T03:39:40.912Z,2.78
2022-10-02T03:40:43.002Z,2.50
2022-10-02T03:41:46.351Z,2.90
2022-10-02T03:42:48.578Z,2.72
2022-10-02T03:43:50.731Z,2.92
2022-10-02T03:44:52.836Z,2.08
2022-10-02T03:45:55.068Z,2.65
2022-10-02T03:46:57.184Z,2.30
2022-10-02T03:47:59.357Z,2.28
2022-10-02T03:49:01.586Z,2.50
2022-10-02T03:50:04.097Z,2.58
2022-10-02T03:51:06.374Z,1.98
2022-10-02T03:52:17.076Z,3.33
2022-10-02T03:53:22.032Z,2.60
2022-10-02T03:54:24.202Z,2.60
2022-10-02T03:55:40.541Z,2.60
2022-10-02T03:56:45.933Z,4.47
2022-10-02T03:57:48.257Z,2.33
2022-10-02T03:58:54.591Z,2.70
2022-10-02T04:00:12.984Z,2.10
2022-10-02T04:01:26.809Z,2.15
2022-10-02T04:02:44.454Z,3.35
2022-10-02T04:03:56.209Z,2.65
2022-10-02T04:05:22.861Z,2.47
2022-10-02T04:06:46.390Z,2.50
2022-10-02T04:07:54.900Z,3.42
2022-10-02T04:09:04.594Z,2.30
2022-10-02T04:10:10.889Z,2.65
2022-10-02T04:11:36.666Z,2.97
2022-10-02T04:12:44.194Z,3.13
2022-10-02T04:14:21.816Z,3.88
2022-10-02T04:15:37.205Z,2.88
2022-10-02T04:16:46.667Z,2.22
2022-10-02T04:17:59.956Z,1.88
2022-10-02T04:19:10.727Z,2.63
2022-10-02T04:21:58.286Z,1.92
2022-10-02T04:23:28.813Z,2.28
2022-10-02T04:24:45.609Z,2.15
2022-10-02T04:25:55.353Z,2.47
2022-10-02T04:27:00.558Z,1.92
2022-10-02T04:28:07.892Z,2.00
2022-10-02T04:29:24.281Z,2.15
2022-10-02T04:30:26.531Z,2.00
2022-10-02T04:31:28.779Z,2.78
2022-10-02T04:32:33.154Z,2.30
2022-10-02T04:33:38.427Z,2.20
2022-10-02T04:34:40.925Z,2.10
2022-10-02T04:36:01.797Z,2.45
2022-10-02T04:37:39.427Z,2.50
2022-10-02T04:38:54.463Z,2.70
2022-10-02T04:40:19.630Z,3.05
2022-10-02T04:41:49.650Z,2.60
2022-10-02T04:42:59.727Z,2.08
2022-10-02T04:44:10.952Z,2.47
2022-10-02T04:45:26.631Z,2.50
2022-10-02T04:46:31.794Z,2.40
2022-10-02T04:48:01.834Z,2.78
2022-10-02T04:49:09.733Z,2.55
2022-10-02T04:50:50.242Z,2.15
2022-10-02T04:52:15.323Z,2.17
2022-10-02T04:53:47.874Z,2.03
2022-10-02T04:55:06.286Z,1.75
2022-10-02T04:56:49.972Z,2.00
2022-10-02T04:58:19.847Z,2.42
2022-10-02T04:59:33.908Z,2.20
2022-10-02T05:01:00.922Z,2.70
2022-10-02T05:02:32.383Z,2.58
2022-10-02T05:03:46.489Z,2.42
2022-10-02T05:05:04.165Z,1.98
2022-10-02T05:06:18.314Z,2.97
2022-10-02T05:07:39.121Z,2.40
2022-10-02T05:08:53.570Z,2.70
2022-10-02T05:10:07.754Z,2.20
2022-10-02T05:11:36.096Z,2.33
2022-10-02T05:12:48.192Z,2.00
2022-10-02T05:14:05.346Z,2.08
2022-10-02T05:15:13.967Z,2.33
2022-10-02T05:16:16.090Z,2.78
2022-10-02T05:17:46.033Z,2.30
2022-10-02T05:19:10.654Z,1.95
2022-10-02T05:20:24.937Z,2.40
2022-10-02T05:22:05.975Z,2.13
2022-10-02T05:23:37.576Z,2.10
2022-10-02T05:25:08.575Z,3.17
2022-10-02T05:26:20.394Z,2.13
2022-10-02T05:27:37.690Z,2.38
2022-10-02T05:29:07.092Z,2.10
2022-10-02T05:30:13.761Z,2.53
2022-10-02T05:31:43.608Z,1.98
2022-10-02T05:33:06.417Z,2.13
2022-10-02T05:34:59.707Z,2.13
2022-10-02T05:36:01.813Z,2.50
2022-10-02T05:37:28.196Z,3.35
2022-10-02T05:38:30.308Z,2.50
2022-10-02T05:39:44.667Z,2.22
2022-10-02T05:40:58.826Z,2.35
2022-10-02T05:42:43.241Z,2.33
2022-10-02T05:43:51.391Z,2.80
2022-10-02T05:45:03.711Z,2.08
2022-10-02T05:46:15.620Z,2.20
2022-10-02T05:47:30.074Z,2.55
2022-10-02T05:48:39.930Z,3.30
2022-10-02T05:49:52.843Z,1.92
2022-10-02T05:51:00.790Z,4.75
2022-10-02T05:52:13.604Z,3.17
2022-10-02T05:53:34.696Z,1.80
2022-10-02T05:56:12.183Z,2.85
2022-10-02T05:57:27.290Z,2.65
2022-10-02T05:58:54.628Z,2.55
2022-10-02T06:00:06.026Z,2.67
2022-10-02T06:01:21.122Z,2.30
2022-10-02T06:02:25.878Z,2.30
2022-10-02T06:03:38.311Z,1.75
2022-10-02T06:04:47.844Z,1.88
2022-10-02T06:06:19.558Z,3.13
2022-10-02T06:07:21.777Z,1.50
2022-10-02T06:08:34.318Z,2.67
2022-10-02T06:09:45.372Z,2.50
2022-10-02T06:10:59.158Z,2.53
2022-10-02T06:12:10.890Z,1.90
2022-10-02T06:13:35.623Z,2.08
2022-10-02T06:14:50.537Z,1.27
2022-10-02T06:16:32.967Z,1.90
2022-10-02T06:17:45.452Z,2.78
2022-10-02T06:18:55.499Z,1.92
2022-10-02T06:20:23.573Z,1.65
2022-10-02T06:21:34.133Z,1.92
2022-10-02T06:22:45.494Z,1.95
2022-10-02T06:23:53.224Z,2.03
2022-10-02T06:25:16.922Z,2.17
2022-10-02T06:26:40.316Z,1.38
2022-10-02T06:27:48.389Z,1.60
2022-10-02T06:29:02.323Z,1.80
2022-10-02T06:30:06.521Z,1.77
2022-10-02T06:31:21.246Z,2.05
2022-10-02T06:32:23.439Z,1.65
2022-10-02T06:33:29.431Z,1.92
2022-10-02T06:34:31.641Z,1.30
2022-10-02T06:35:55.258Z,2.17
2022-10-02T06:36:57.290Z,1.40
2022-10-02T06:38:23.732Z,2.00
2022-10-02T06:39:35.264Z,1.42
2022-10-02T06:40:51.231Z,1.80
2022-10-02T06:42:05.524Z,1.63
2022-10-02T06:43:29.325Z,1.10
2022-10-02T06:44:39.687Z,1.40
2022-10-02T06:46:11.733Z,1.20
2022-10-02T06:47:16.693Z,1.75
2022-10-02T06:48:22.278Z,1.35
2022-10-02T06:49:42.806Z,2.42
2022-10-02T06:50:52.391Z,1.60
2022-10-02T06:52:12.711Z,2.33
2022-10-02T06:53:24.089Z,1.13
2022-10-02T06:54:31.448Z,1.35
2022-10-02T06:55:45.294Z,1.33
2022-10-02T06:57:07.069Z,1.25
2022-10-02T06:58:59.491Z,1.83
2022-10-02T07:00:16.473Z,1.25
2022-10-02T07:01:37.119Z,1.35
2022-10-02T07:02:55.474Z,1.85
2022-10-02T07:04:16.851Z,1.60
2022-10-02T07:05:35.263Z,1.30
2022-10-02T07:07:21.091Z,1.00
2022-10-02T07:08:58.409Z,1.10
2022-10-02T07:10:34.163Z,1.05
2022-10-02T07:12:08.348Z,1.25
2022-10-02T07:13:41.600Z,0.80
2022-10-02T07:15:19.090Z,1.15
2022-10-02T07:16:58.706Z,1.40
2022-10-02T07:18:19.523Z,1.10
2022-10-02T07:19:36.274Z,1.50
2022-10-02T07:20:53.233Z,1.20
2022-10-02T07:22:44.704Z,1.10
2022-10-02T07:24:02.247Z,1.50
2022-10-02T07:25:29.626Z,1.10
2022-10-02T07:26:31.672Z,0.93
2022-10-02T07:27:55.080Z,1.20
2022-10-02T07:29:20.000Z,1.33
2022-10-02T07:30:22.350Z,1.75
2022-10-02T07:31:30.553Z,1.58
2022-10-02T07:32:48.469Z,1.40
2022-10-02T07:34:06.450Z,1.20
2022-10-02T07:35:35.883Z,2.13
2022-10-02T07:37:04.896Z,1.77
2022-10-02T07:38:13.147Z,1.00
2022-10-02T07:39:18.385Z,1.90
2022-10-02T07:40:59.828Z,1.77
2022-10-02T07:42:20.244Z,1.50
2022-10-02T07:43:31.442Z,1.17
2022-10-02T07:45:01.296Z,2.47
2022-10-02T07:46:29.983Z,1.13
2022-10-02T07:47:57.775Z,1.40
2022-10-02T07:49:08.759Z,1.50
2022-10-02T07:50:12.924Z,1.60
2022-10-02T07:51:47.904Z,1.52
2022-10-02T07:53:05.214Z,1.50
2022-10-02T07:54:28.663Z,1.20
2022-10-02T07:55:33.841Z,1.73
2022-10-02T07:56:36.841Z,1.30
2022-10-02T07:58:13.630Z,1.90
2022-10-02T07:59:18.258Z,1.08
2022-10-02T08:00:24.055Z,1.13
2022-10-02T08:01:32.133Z,1.58
2022-10-02T08:02:41.645Z,1.63
2022-10-02T08:03:56.304Z,2.25
2022-10-02T08:05:03.561Z,1.17
2022-10-02T08:06:06.425Z,1.50
2022-10-02T08:07:08.652Z,1.48
2022-10-02T08:08:20.086Z,1.58
2022-10-02T08:09:39.557Z,1.52
2022-10-02T08:10:47.311Z,1.42
2022-10-02T08:11:54.386Z,1.60
2022-10-02T08:13:14.687Z,1.25
2022-10-02T08:14:26.911Z,1.15
2022-10-02T08:15:34.829Z,1.25
2022-10-02T08:16:55.096Z,1.38
2022-10-02T08:18:22.729Z,1.25
2022-10-02T08:19:30.161Z,2.05
2022-10-02T08:20:38.280Z,2.05
2022-10-02T08:21:46.333Z,2.47
2022-10-02T08:22:53.599Z,2.05
2022-10-02T08:24:20.732Z,1.42
2022-10-02T08:25:28.770Z,1.20
2022-10-02T08:26:36.083Z,2.10
2022-10-02T08:27:41.491Z,1.63
2022-10-02T08:28:57.835Z,1.40
2022-10-02T08:30:03.896Z,1.60
2022-10-02T08:31:11.950Z,1.40
2022-10-02T08:32:14.821Z,1.85
2022-10-02T08:33:22.700Z,1.45
2022-10-02T08:34:26.048Z,2.35
2022-10-02T08:35:41.390Z,1.27
2022-10-02T08:36:58.315Z,1.92
2022-10-02T08:38:40.330Z,2.22
2022-10-02T08:40:10.059Z,1.45
2022-10-02T08:41:30.601Z,2.33
2022-10-02T08:43:06.524Z,1.38
2022-10-02T08:44:36.158Z,1.35
2022-10-02T08:46:15.571Z,1.90
2022-10-02T08:47:35.697Z,1.63
2022-10-02T08:49:15.351Z,1.63
2022-10-02T08:50:54.946Z,2.55
2022-10-02T08:52:11.713Z,1.20
2022-10-02T08:53:35.502Z,1.38
2022-10-02T08:54:59.227Z,1.50
2022-10-02T08:56:26.354Z,1.48
2022-10-02T08:58:06.055Z,1.20
2022-10-02T08:59:18.976Z,1.67
2022-10-02T09:00:25.472Z,0.95
2022-10-02T09:01:46.074Z,1.52
2022-10-02T09:03:30.078Z,1.13
2022-10-02T09:04:44.277Z,1.02
2022-10-02T09:05:49.567Z,1.45
2022-10-02T09:06:54.343Z,1.33
2022-10-02T09:08:08.373Z,1.25
2022-10-02T09:09:48.066Z,1.48
2022-10-02T09:11:14.776Z,1.15
2022-10-02T09:12:37.796Z,1.00
2022-10-02T09:14:05.922Z,1.05
2022-10-02T09:15:08.026Z,1.17
2022-10-02T09:16:15.276Z,0.88
2022-10-02T09:17:34.027Z,1.00
2022-10-02T09:18:56.235Z,1.10
2022-10-02T09:20:29.145Z,1.55
2022-10-02T09:21:52.378Z,1.73
2022-10-02T09:22:57.218Z,1.08
2022-10-02T09:24:02.157Z,1.45
2022-10-02T09:25:26.094Z,1.08
2022-10-02T09:26:40.261Z,0.93
2022-10-02T09:28:13.710Z,1.08
2022-10-02T09:29:50.630Z,0.80
2022-10-02T09:31:14.817Z,1.70
2022-10-02T09:32:43.371Z,0.93
2022-10-02T09:34:22.617Z,0.77
2022-10-02T09:35:49.633Z,0.93
2022-10-02T09:36:57.632Z,0.80
2022-10-02T09:38:21.320Z,0.93
2022-10-02T09:39:45.047Z,0.80
2022-10-02T09:41:33.998Z,1.02
2022-10-02T09:43:01.326Z,0.88
2022-10-02T09:44:34.434Z,0.93
2022-10-02T09:46:30.920Z,1.00
2022-10-02T09:48:10.931Z,0.75
2022-10-02T09:49:42.295Z,0.82
2022-10-02T09:51:04.613Z,0.93
2022-10-02T09:52:45.542Z,0.90
2022-10-02T09:54:21.653Z,0.98
2022-10-02T09:56:01.374Z,1.02
2022-10-02T09:57:22.096Z,0.65
2022-10-02T09:58:30.431Z,0.80
2022-10-02T10:00:07.688Z,0.98
2022-10-02T10:01:27.685Z,1.10
2022-10-02T10:03:10.753Z,1.38
2022-10-02T10:04:24.196Z,0.98
2022-10-02T10:05:55.736Z,0.75
2022-10-02T10:07:19.143Z,1.48
2022-10-02T10:08:30.175Z,1.05
2022-10-02T10:09:50.353Z,1.20
2022-10-02T10:11:02.432Z,0.88
2022-10-02T10:12:41.397Z,1.38
2022-10-02T10:14:08.131Z,1.40
2022-10-02T10:15:23.589Z,2.30
2022-10-02T10:16:54.940Z,1.38
2022-10-02T10:18:10.398Z,1.52
2022-10-02T10:19:33.102Z,1.48
2022-10-02T10:21:00.197Z,1.35
2022-10-02T10:22:27.220Z,1.52
2022-10-02T10:23:51.100Z,1.35
2022-10-02T10:25:17.762Z,1.70
2022-10-02T10:26:38.635Z,1.20
2022-10-02T10:29:00.710Z,1.45
2022-10-02T10:30:27.298Z,4.00
2022-10-02T10:32:00.875Z,22.15
2022-10-02T10:33:16.641Z,14.20
2022-10-02T10:34:49.610Z,6.97
2022-10-02T10:36:03.955Z,2.70
2022-10-02T10:37:39.653Z,2.15
2022-10-02T10:38:50.769Z,1.60
2022-10-02T10:40:14.310Z,1.17
2022-10-02T10:41:25.898Z,1.23
2022-10-02T10:43:06.509Z,1.73
2022-10-02T10:44:21.896Z,1.77
2022-10-02T10:46:02.847Z,1.75
2022-10-02T10:47:23.369Z,1.60
2022-10-02T10:49:00.445Z,1.33
2022-10-02T10:50:35.788Z,1.50
2022-10-02T10:51:59.361Z,1.17
2022-10-02T10:53:27.900Z,1.13
2022-10-02T10:54:51.118Z,1.58
2022-10-02T10:56:21.698Z,1.52
2022-10-02T10:57:32.726Z,1.92
2022-10-02T10:58:43.747Z,1.85
2022-10-02T10:59:48.804Z,1.58
2022-10-02T11:01:17.524Z,1.10
2022-10-02T11:02:44.058Z,1.58
2022-10-02T11:04:04.615Z,1.73
2022-10-02T11:05:15.710Z,1.08
2022-10-02T11:06:56.214Z,1.40
2022-10-02T11:08:24.252Z,1.92
2022-10-02T11:09:38.358Z,1.30
2022-10-02T11:11:24.154Z,1.30
2022-10-02T11:13:05.050Z,1.42
2022-10-02T11:14:28.172Z,1.50
2022-10-02T11:16:09.434Z,1.27
2022-10-02T11:17:25.394Z,1.60
2022-10-02T11:18:45.925Z,1.67
2022-10-02T11:20:22.164Z,1.02
2022-10-02T11:21:43.076Z,1.23
2022-10-02T11:24:19.421Z,1.27
2022-10-02T11:25:50.399Z,1.23
2022-10-02T11:28:23.978Z,1.50
2022-10-02T11:29:57.099Z,1.08
2022-10-02T11:31:05.157Z,1.30
2022-10-02T11:32:33.720Z,1.00
2022-10-02T11:34:08.082Z,1.00
2022-10-02T11:35:13.226Z,1.40
2022-10-02T11:36:42.556Z,1.45
2022-10-02T11:38:19.504Z,1.20
2022-10-02T11:40:12.385Z,1.40
2022-10-02T11:41:25.498Z,1.83
2022-10-02T11:42:52.919Z,1.55
2022-10-02T11:44:13.442Z,1.00
2022-10-02T11:45:25.881Z,1.00
2022-10-02T11:46:41.162Z,0.90
2022-10-02T11:48:09.217Z,1.02
2022-10-02T11:49:39.175Z,1.17
2022-10-02T11:50:57.433Z,0.95
2022-10-02T11:52:05.920Z,2.03
2022-10-02T11:53:26.424Z,1.15
2022-10-02T11:54:45.566Z,1.67
2022-10-02T11:56:09.429Z,1.13
2022-10-02T11:57:29.198Z,1.35
2022-10-02T11:58:44.091Z,1.63
2022-10-02T12:00:05.723Z,1.48
2022-10-02T12:01:22.713Z,1.25
2022-10-02T12:02:41.595Z,1.50
2022-10-02T12:04:18.618Z,1.92
2022-10-02T12:05:37.849Z,1.63
2022-10-02T12:07:05.398Z,1.25
2022-10-02T12:08:34.424Z,1.10
2022-10-02T12:09:54.664Z,1.13
2022-10-02T12:11:15.547Z,0.90
2022-10-02T12:12:32.720Z,1.00
2022-10-02T12:14:10.086Z,1.45
2022-10-02T12:15:17.986Z,1.17
2022-10-02T12:16:57.256Z,1.00
2022-10-02T12:18:31.832Z,1.77
2022-10-02T12:20:11.593Z,3.10
2022-10-02T12:21:32.062Z,2.65
2022-10-02T12:23:05.568Z,2.55
2022-10-02T12:24:35.214Z,2.60
2022-10-02T12:26:08.813Z,1.60
2022-10-02T12:27:22.582Z,1.42
2022-10-02T12:28:31.443Z,1.63
2022-10-02T12:29:40.959Z,1.73
2022-10-02T12:30:47.178Z,1.80
2022-10-02T12:31:55.796Z,1.60
2022-10-02T12:33:17.646Z,1.60
2022-10-02T12:34:46.459Z,1.50
2022-10-02T12:36:05.444Z,1.90
2022-10-02T12:37:25.099Z,1.77
2022-10-02T12:38:50.898Z,1.23
2022-10-02T12:40:14.466Z,1.50
2022-10-02T12:41:44.682Z,1.80
2022-10-02T12:43:00.061Z,2.45
2022-10-02T12:44:27.293Z,1.63
2022-10-02T12:45:38.754Z,1.85
2022-10-02T12:47:28.111Z,1.23
2022-10-02T12:48:33.191Z,2.58
2022-10-02T12:49:39.437Z,1.20
2022-10-02T12:51:57.657Z,1.58
2022-10-02T12:53:36.730Z,3.60
2022-10-02T12:55:14.256Z,2.88
2022-10-02T12:56:45.905Z,1.88
2022-10-02T12:58:31.288Z,1.60
2022-10-02T13:00:08.286Z,1.98
2022-10-02T13:01:38.791Z,1.58
2022-10-02T13:03:02.030Z,1.13
2022-10-02T13:04:23.128Z,1.00
2022-10-02T13:07:01.314Z,1.38
2022-10-02T13:08:31.528Z,1.75
2022-10-02T13:09:38.766Z,1.87
2022-10-02T13:11:01.287Z,1.42
2022-10-02T13:12:21.734Z,0.93
2022-10-02T13:13:43.002Z,2.55
2022-10-02T13:15:04.410Z,1.23
2022-10-02T13:16:22.884Z,1.20
2022-10-02T13:17:35.966Z,1.25
2022-10-02T13:18:52.629Z,1.52
2022-10-02T13:20:16.955Z,1.20
2022-10-02T13:21:40.280Z,1.23
2022-10-02T13:22:58.154Z,0.90
2022-10-02T13:24:16.803Z,1.17
2022-10-02T13:25:19.011Z,1.80
2022-10-02T13:26:23.974Z,1.30
2022-10-02T13:27:39.994Z,1.73
2022-10-02T13:28:51.679Z,1.27
2022-10-02T13:30:06.303Z,1.77
2022-10-02T13:31:39.688Z,1.23
2022-10-02T13:33:00.501Z,1.40
2022-10-02T13:34:38.572Z,1.20
2022-10-02T13:36:23.075Z,1.40
2022-10-02T13:37:46.233Z,1.13
2022-10-02T13:39:09.004Z,1.00
2022-10-02T13:40:29.493Z,0.90
2022-10-02T13:42:03.412Z,1.20
2022-10-02T13:43:25.727Z,1.05
2022-10-02T13:44:50.517Z,1.05
2022-10-02T13:46:21.174Z,1.23
2022-10-02T13:47:43.230Z,1.25
2022-10-02T13:49:04.963Z,1.65
2022-10-02T13:50:30.940Z,1.08
2022-10-02T13:52:11.627Z,1.40
2022-10-02T13:53:32.207Z,1.33
2022-10-02T13:54:50.209Z,1.40
2022-10-02T13:56:02.814Z,1.42
2022-10-02T13:57:29.806Z,1.38
2022-10-02T13:58:48.155Z,1.65
2022-10-02T14:00:10.403Z,1.30
2022-10-02T14:01:24.960Z,1.42
2022-10-02T14:02:44.293Z,1.77
2022-10-02T14:03:54.577Z,1.20
2022-10-02T14:05:05.644Z,1.17
2022-10-02T14:06:29.968Z,1.80
2022-10-02T14:07:52.264Z,1.52
2022-10-02T14:09:31.527Z,1.83
2022-10-02T14:10:45.929Z,1.23
2022-10-02T14:12:08.906Z,1.17
2022-10-02T14:13:31.351Z,1.02
2022-10-02T14:14:56.209Z,1.23
2022-10-02T14:16:10.468Z,7.25
2022-10-02T14:17:22.742Z,4.97
2022-10-02T14:18:26.224Z,1.55
2022-10-02T14:19:34.219Z,1.25
2022-10-02T14:20:39.056Z,1.90
2022-10-02T14:22:06.200Z,2.83
2022-10-02T14:23:34.533Z,2.60
2022-10-02T14:25:00.737Z,2.40
2022-10-02T14:26:49.094Z,3.70
2022-10-02T14:28:09.251Z,1.88
2022-10-02T14:29:11.375Z,2.70
2022-10-02T14:30:27.001Z,2.08
2022-10-02T14:31:52.383Z,1.45
2022-10-02T14:33:00.614Z,1.45
2022-10-02T14:34:34.721Z,1.30
2022-10-02T14:35:48.762Z,1.85
2022-10-02T14:37:16.941Z,2.20
2022-10-02T14:38:34.541Z,1.73
2022-10-02T14:39:41.711Z,1.67
2022-10-02T14:40:46.670Z,1.83
2022-10-02T14:42:08.126Z,1.45
2022-10-02T14:43:25.470Z,1.85
2022-10-02T14:44:33.459Z,1.98
2022-10-02T14:45:38.492Z,2.15
2022-10-02T14:47:01.366Z,1.40
2022-10-02T14:48:29.583Z,1.38
2022-10-02T14:49:47.765Z,1.40
2022-10-02T14:51:17.707Z,1.58
2022-10-02T14:52:53.546Z,1.85
2022-10-02T14:54:23.270Z,1.60
2022-10-02T14:55:29.844Z,1.73
2022-10-02T14:56:37.808Z,1.23
2022-10-02T14:58:00.288Z,1.80
2022-10-02T14:59:20.002Z,1.20
2022-10-02T15:00:24.736Z,1.27
2022-10-02T15:01:26.938Z,1.95
2022-10-02T15:02:53.848Z,2.17
2022-10-02T15:04:14.214Z,1.10
2022-10-02T15:05:46.566Z,1.20
2022-10-02T15:06:51.694Z,1.10
2022-10-02T15:07:53.875Z,1.00
2022-10-02T15:09:43.751Z,1.63
2022-10-02T15:10:49.246Z,1.25
2022-10-02T15:12:10.910Z,1.55
2022-10-02T15:13:41.105Z,1.52
2022-10-02T15:14:57.765Z,1.33
2022-10-02T15:16:45.227Z,1.65
2022-10-02T15:17:56.089Z,1.60
2022-10-02T15:19:16.512Z,1.20
2022-10-02T15:20:40.579Z,1.25
2022-10-02T15:21:57.374Z,1.20
2022-10-02T15:23:03.141Z,1.00
2022-10-02T15:24:25.237Z,0.82
2022-10-02T15:25:52.011Z,1.00
2022-10-02T15:27:09.298Z,1.02
2022-10-02T15:28:35.727Z,1.17
2022-10-02T15:30:12.118Z,1.00
2022-10-02T15:31:25.782Z,0.88
2022-10-02T15:32:57.030Z,1.05
2022-10-02T15:33:59.132Z,1.10
2022-10-02T15:35:19.541Z,1.20
2022-10-02T15:36:48.433Z,1.42
2022-10-02T15:38:18.123Z,0.98
2022-10-02T15:39:31.769Z,1.80
2022-10-02T15:41:01.195Z,1.35
2022-10-02T15:42:11.154Z,1.10
2022-10-02T15:43:15.973Z,0.98
2022-10-02T15:44:43.803Z,1.20
2022-10-02T15:46:17.006Z,1.17
2022-10-02T15:47:35.794Z,1.63
2022-10-02T15:49:15.194Z,1.10
2022-10-02T15:50:30.517Z,1.55
2022-10-02T15:52:01.198Z,1.33
2022-10-02T15:53:31.572Z,1.70
2022-10-02T15:54:45.422Z,1.10
2022-10-02T15:56:04.405Z,1.75
2022-10-02T15:57:22.166Z,1.38
2022-10-02T15:58:53.666Z,1.50
2022-10-02T16:00:30.924Z,1.42
2022-10-02T16:01:33.048Z,2.53
2022-10-02T16:02:53.282Z,1.20
2022-10-02T16:04:07.572Z,3.70
2022-10-02T16:05:36.276Z,1.70
2022-10-02T16:06:53.498Z,1.80
2022-10-02T16:08:31.199Z,2.90
2022-10-02T16:09:54.156Z,1.45
2022-10-02T16:11:33.439Z,2.20
2022-10-02T16:12:59.954Z,1.30
2022-10-02T16:14:20.696Z,1.48
2022-10-02T16:15:31.600Z,1.58
2022-10-02T16:17:39.211Z,2.33
2022-10-02T16:19:05.551Z,1.17
2022-10-02T16:20:27.921Z,1.95
2022-10-02T16:21:52.847Z,1.55
2022-10-02T16:23:21.084Z,1.92
2022-10-02T16:24:35.198Z,1.80
2022-10-02T16:25:59.391Z,1.52
2022-10-02T16:27:23.182Z,2.58
2022-10-02T16:28:50.286Z,1.50
2022-10-02T16:30:18.737Z,1.88
2022-10-02T16:31:30.084Z,1.58
2022-10-02T16:32:42.707Z,2.17
2022-10-02T16:34:20.279Z,2.03
2022-10-02T16:35:43.817Z,1.77
2022-10-02T16:36:46.217Z,1.55
2022-10-02T16:38:04.784Z,2.00
2022-10-02T16:39:22.653Z,1.00
2022-10-02T16:40:59.228Z,1.70
2022-10-02T16:42:22.645Z,1.30
2022-10-02T16:43:31.880Z,1.83
2022-10-02T16:45:06.282Z,1.80
2022-10-02T16:46:21.119Z,1.73
2022-10-02T16:47:41.201Z,1.35
2022-10-02T16:48:53.748Z,1.38
2022-10-02T16:50:35.047Z,1.05
2022-10-02T16:51:48.376Z,1.73
2022-10-02T16:52:50.488Z,1.80
2022-10-02T16:54:14.174Z,1.42
2022-10-02T16:55:33.921Z,1.90
2022-10-02T16:56:51.238Z,1.80
2022-10-02T16:58:17.463Z,3.50
2022-10-02T16:59:40.268Z,1.98
2022-10-02T17:01:01.176Z,1.52
2022-10-02T17:03:31.490Z,1.55
2022-10-02T17:04:45.448Z,2.08
2022-10-02T17:05:47.710Z,1.65
2022-10-02T17:06:58.170Z,2.08
2022-10-02T17:08:21.686Z,2.35
2022-10-02T17:09:34.912Z,2.08
2022-10-02T17:10:53.191Z,1.92
2022-10-02T17:12:10.973Z,1.50
2022-10-02T17:13:26.179Z,1.60
2022-10-02T17:14:37.555Z,1.50
2022-10-02T17:15:58.126Z,2.30
2022-10-02T17:17:20.407Z,1.80
2022-10-02T17:18:34.146Z,1.90
2022-10-02T17:19:48.659Z,1.70
2022-10-02T17:20:55.015Z,1.40
2022-10-02T17:22:11.122Z,2.35
2022-10-02T17:23:28.318Z,1.23
2022-10-02T17:24:33.577Z,2.28
2022-10-02T17:25:56.705Z,1.38
2022-10-02T17:27:19.784Z,2.03
2022-10-02T17:28:42.556Z,1.23
2022-10-02T17:29:54.619Z,2.03
2022-10-02T17:31:16.471Z,1.50
2022-10-02T17:32:45.854Z,1.75
2022-10-02T17:33:55.387Z,1.42
2022-10-02T17:34:59.933Z,2.40